Time;durP1;ratioP1;P1;durP2;ratioP2;P2;SDS_P1;SDS_P2;PMS_P1;PMS_P2;Temp;Humidity;BMP_temperature;BMP_pressure;BME280_temperature;BME280_humidity;BME280_pressure;Samples;Min_cycle;Max_cycle;Signal;HPM_P1;HPM_P2
2022/11/07 00:00:48;;;;;;;1.33;0.93;;;;;;;12.35;63.62;100055.91;10393549;28;20547;-66
2022/11/07 00:05:50;;;;;;;3.17;1.23;;;;;;;12.37;63.82;100053.84;10392817;28;20137;-66
2022/11/07 00:10:53;;;;;;;1.45;1.10;;;;;;;12.34;64.04;100054.22;10394428;28;20128;-66
2022/11/07 00:15:59;;;;;;;3.63;1.35;;;;;;;12.43;63.64;100060.31;10389294;28;20136;-66
2022/11/07 00:21:05;;;;;;;4.00;1.33;;;;;;;12.49;63.92;100054.16;10388675;28;20133;-66
2022/11/07 00:26:10;;;;;;;2.22;1.00;;;;;;;12.43;64.33;100054.94;10390592;28;20358;-66
2022/11/07 00:31:12;;;;;;;5.53;1.02;;;;;;;12.40;64.51;100056.16;10393042;28;20429;-66
2022/11/07 00:36:24;;;;;;;3.88;0.93;;;;;;;12.26;64.62;100070.53;10383197;28;20221;-66
2022/11/07 00:41:26;;;;;;;5.70;1.20;;;;;;;12.26;64.83;100082.19;10391544;28;20137;-66
2022/11/07 00:46:27;;;;;;;4.70;1.33;;;;;;;12.27;64.75;100080.31;10372728;28;20125;-66
2022/11/07 00:51:29;;;;;;;3.30;1.73;;;;;;;12.32;64.66;100094.00;10389532;28;20041;-66
2022/11/07 00:56:30;;;;;;;4.93;1.02;;;;;;;12.32;65.26;100088.63;10357418;28;20072;-66
2022/11/07 01:01:32;;;;;;;3.38;1.30;;;;;;;12.38;65.19;100087.88;10391664;28;20065;-66
2022/11/07 01:06:37;;;;;;;3.22;0.90;;;;;;;12.39;65.05;100089.53;10380254;28;20038;-67
2022/11/07 01:11:40;;;;;;;5.57;1.67;;;;;;;12.46;65.05;100108.44;10387912;28;20057;-66
2022/11/07 01:16:42;;;;;;;5.28;1.35;;;;;;;12.44;65.02;100103.28;10383137;28;20077;-66
2022/11/07 01:21:44;;;;;;;1.65;1.30;;;;;;;12.42;65.28;100101.78;10380739;28;20088;-66
2022/11/07 01:26:50;;;;;;;4.18;1.40;;;;;;;12.52;65.04;100102.31;10384093;28;20083;-66
2022/11/07 01:31:52;;;;;;;3.88;1.20;;;;;;;12.55;65.09;100103.75;10390859;28;20050;-66
2022/11/07 01:36:53;;;;;;;2.85;1.27;;;;;;;12.55;65.45;100109.16;10384488;28;20423;-66
2022/11/07 01:41:54;;;;;;;3.17;1.55;;;;;;;12.60;65.42;100107.53;10384900;28;20045;-67
2022/11/07 01:46:58;;;;;;;2.72;1.40;;;;;;;12.63;65.03;100095.53;10386534;28;20374;-67
2022/11/07 01:52:09;;;;;;;3.88;1.85;;;;;;;12.64;65.36;100095.34;10387515;28;20080;-67
2022/11/07 01:57:18;;;;;;;3.53;1.45;;;;;;;12.66;65.42;100092.44;10390419;28;20072;-67
2022/11/07 02:02:22;;;;;;;3.22;1.55;;;;;;;12.69;65.31;100095.56;10395091;28;20491;-67
2022/11/07 02:07:24;;;;;;;4.22;2.33;;;;;;;12.72;65.62;100080.88;10392095;28;20064;-67
2022/11/07 02:12:26;;;;;;;7.35;1.58;;;;;;;12.79;65.81;100092.53;10390636;28;20153;-66
2022/11/07 02:17:28;;;;;;;2.53;1.30;;;;;;;12.70;65.86;100083.75;10398080;28;20427;-67
2022/11/07 02:23:14;;;;;;;2.38;0.98;;;;;;;12.64;66.06;100072.94;10393826;28;20128;-66
2022/11/07 02:28:19;;;;;;;5.82;1.17;;;;;;;12.62;66.48;100080.41;10383852;28;20057;-66
2022/11/07 02:33:22;;;;;;;3.85;1.10;;;;;;;12.59;66.07;100070.81;10392833;28;20037;-66
2022/11/07 02:38:35;;;;;;;1.70;1.00;;;;;;;12.57;66.61;100075.56;10397053;28;20137;-66
2022/11/07 02:43:41;;;;;;;3.30;1.40;;;;;;;12.59;66.42;100065.41;10392849;28;20073;-66
2022/11/07 02:48:46;;;;;;;3.20;1.10;;;;;;;12.69;66.27;100073.16;10393442;28;20065;-66
2022/11/07 02:53:48;;;;;;;3.45;1.20;;;;;;;12.73;66.33;100077.13;10394753;28;20095;-66
2022/11/07 02:58:53;;;;;;;2.80;1.30;;;;;;;12.77;65.95;100061.38;10382324;28;20076;-66
2022/11/07 03:03:55;;;;;;;4.28;1.60;;;;;;;12.81;65.83;100074.28;10380642;28;20125;-66
2022/11/07 03:08:56;;;;;;;1.77;1.45;;;;;;;12.72;66.64;100071.94;10387210;28;20089;-66
2022/11/07 03:13:58;;;;;;;3.40;1.30;;;;;;;12.77;66.58;100059.53;10390799;28;20526;-66
2022/11/07 03:18:59;;;;;;;4.57;1.20;;;;;;;12.83;66.15;100077.59;10386375;28;20046;-67
2022/11/07 03:24:01;;;;;;;2.70;1.30;;;;;;;12.94;66.13;100087.03;10388354;28;20132;-67
2022/11/07 03:29:02;;;;;;;5.65;2.72;;;;;;;12.93;66.83;100079.13;10385883;28;20133;-66
2022/11/07 03:34:03;;;;;;;4.97;1.52;;;;;;;12.97;66.67;100093.88;10387311;28;20412;-65
2022/11/07 03:39:05;;;;;;;3.53;1.25;;;;;;;13.00;66.74;100097.03;10389952;28;20188;-66
2022/11/07 03:44:06;;;;;;;5.45;1.40;;;;;;;13.02;66.88;100088.75;10388230;28;20046;-66
2022/11/07 03:49:08;;;;;;;2.17;1.40;;;;;;;13.03;66.87;100095.78;10379481;28;20077;-67
2022/11/07 03:54:09;;;;;;;2.65;1.50;;;;;;;13.04;66.92;100092.06;10377453;28;20076;-66
2022/11/07 03:59:11;;;;;;;4.30;1.38;;;;;;;13.09;66.81;100100.38;10383852;28;20098;-66
2022/11/07 04:04:12;;;;;;;5.18;1.95;;;;;;;13.03;66.94;100102.03;10387094;28;20084;-66
2022/11/07 04:09:13;;;;;;;6.65;2.17;;;;;;;13.05;66.96;100112.63;10392247;28;20604;-66
2022/11/07 04:19:35;;;;;;;5.35;2.22;;;;;;;13.04;67.50;100116.38;10394747;28;20107;-67
2022/11/07 04:24:36;;;;;;;6.55;2.30;;;;;;;13.01;67.71;100122.13;10357090;28;20104;-65
2022/11/07 04:29:45;;;;;;;6.10;2.25;;;;;;;13.01;68.13;100114.03;10353348;28;20547;-66
2022/11/07 04:34:47;;;;;;;4.70;1.70;;;;;;;13.03;68.18;100130.88;10349170;28;20579;-66
2022/11/07 04:39:48;;;;;;;3.80;1.73;;;;;;;12.99;68.52;100125.03;10350710;28;20128;-66
2022/11/07 04:44:50;;;;;;;5.85;1.80;;;;;;;12.94;68.47;100119.41;10350763;28;20125;-66
2022/11/07 04:49:51;;;;;;;6.95;2.20;;;;;;;12.98;68.23;100115.28;10350569;28;20077;-66
2022/11/07 04:54:52;;;;;;;6.57;2.00;;;;;;;12.92;69.05;100107.97;10349859;28;20084;-66
2022/11/07 04:59:54;;;;;;;6.95;2.25;;;;;;;12.91;69.06;100114.41;10349304;28;20150;-65
2022/11/07 05:04:55;;;;;;;7.38;2.03;;;;;;;12.81;69.05;100119.31;10348206;28;20583;-66
2022/11/07 05:09:56;;;;;;;4.32;1.70;;;;;;;12.77;69.57;100105.38;10347696;28;20128;-66
2022/11/07 05:14:58;;;;;;;5.45;1.55;;;;;;;12.76;69.70;100101.03;10351329;28;20144;-66
2022/11/07 05:19:59;;;;;;;6.72;1.40;;;;;;;12.79;69.62;100102.47;10346239;28;20132;-66
2022/11/07 05:25:01;;;;;;;2.55;1.13;;;;;;;12.84;69.64;100121.63;10390263;28;20534;-67
2022/11/07 05:30:04;;;;;;;7.90;1.92;;;;;;;12.81;69.92;100122.81;10381570;28;20061;-66
2022/11/07 05:35:05;;;;;;;3.72;1.25;;;;;;;12.86;70.00;100125.78;10390420;28;20132;-66
2022/11/07 05:40:07;;;;;;;5.50;1.30;;;;;;;12.88;70.09;100115.63;10388492;28;20042;-66
2022/11/07 05:45:09;;;;;;;4.80;1.35;;;;;;;12.97;69.67;100110.06;10384251;28;20140;-66
2022/11/07 05:50:10;;;;;;;4.50;1.35;;;;;;;13.05;69.72;100115.31;10388413;28;20073;-66
2022/11/07 05:55:12;;;;;;;4.50;1.38;;;;;;;13.06;69.81;100117.81;10391512;28;20124;-67
2022/11/07 06:00:14;;;;;;;4.10;1.08;;;;;;;13.10;69.81;100121.78;10390936;28;20128;-67
2022/11/07 06:05:16;;;;;;;3.67;1.50;;;;;;;13.18;69.55;100130.78;10368066;28;20515;-67
2022/11/07 06:10:24;;;;;;;4.13;1.08;;;;;;;13.23;69.40;100121.06;10383688;28;20849;-67
2022/11/07 06:15:27;;;;;;;2.38;1.30;;;;;;;13.32;69.39;100129.84;10384036;28;20120;-67
2022/11/07 06:20:29;;;;;;;4.97;1.15;;;;;;;13.36;68.90;100133.81;10384853;28;20089;-66
2022/11/07 06:25:31;;;;;;;2.30;1.58;;;;;;;13.39;69.03;100136.13;10367592;28;20136;-65
2022/11/07 06:30:34;;;;;;;5.50;1.02;;;;;;;13.45;68.83;100124.50;10377797;28;20128;-63
2022/11/07 06:35:35;;;;;;;2.67;1.58;;;;;;;13.47;69.16;100145.91;10384302;28;20133;-63
2022/11/07 06:40:41;;;;;;;2.72;0.85;;;;;;;13.46;68.76;100153.16;10384142;28;20057;-63
2022/11/07 06:45:43;;;;;;;9.52;1.63;;;;;;;13.43;68.96;100137.38;10386631;28;20068;-63
2022/11/07 06:50:45;;;;;;;5.25;1.10;;;;;;;13.53;68.91;100147.00;10390273;28;20065;-65
2022/11/07 06:55:46;;;;;;;3.88;1.92;;;;;;;13.57;68.68;100149.09;10390841;28;20069;-65
2022/11/07 07:00:48;;;;;;;5.38;1.02;;;;;;;13.55;68.89;100158.44;10391071;28;20042;-65
2022/11/07 07:05:49;;;;;;;4.43;0.90;;;;;;;13.59;68.72;100165.09;10389370;28;20049;-64
2022/11/07 07:10:50;;;;;;;4.55;0.90;;;;;;;13.65;68.84;100181.31;10387759;28;20680;-64
2022/11/07 07:15:53;;;;;;;7.40;1.00;;;;;;;13.72;68.49;100194.03;10385564;28;20139;-64
2022/11/07 07:21:05;;;;;;;3.78;0.90;;;;;;;13.74;68.22;100195.47;10394096;28;20140;-64
2022/11/07 07:26:11;;;;;;;8.13;1.05;;;;;;;13.77;68.26;100195.09;10390939;28;20140;-64
2022/11/07 07:31:13;;;;;;;9.30;1.10;;;;;;;13.73;68.82;100204.63;10387246;28;20137;-64
2022/11/07 07:36:15;;;;;;;4.45;1.13;;;;;;;13.88;68.11;100199.94;10385856;28;20062;-64
2022/11/07 07:41:21;;;;;;;7.90;1.00;;;;;;;13.90;68.29;100210.50;10383932;28;20074;-63
2022/11/07 07:46:22;;;;;;;6.45;0.85;;;;;;;14.04;67.81;100206.00;10379022;28;20380;-63
2022/11/07 07:51:24;;;;;;;5.28;0.70;;;;;;;14.06;67.75;100198.53;10388559;28;20087;-64
2022/11/07 07:56:26;;;;;;;4.25;0.70;;;;;;;14.13;67.39;100195.84;10367225;28;20052;-64
2022/11/07 08:01:28;;;;;;;2.97;1.10;;;;;;;14.20;67.23;100202.94;10386266;28;20472;-64
2022/11/07 08:06:29;;;;;;;5.90;1.13;;;;;;;14.31;67.02;100204.22;10388264;28;20349;-64
2022/11/07 08:11:31;;;;;;;3.03;0.80;;;;;;;14.46;66.99;100195.94;10384852;28;20073;-64
2022/11/07 08:16:32;;;;;;;4.95;0.70;;;;;;;14.54;66.79;100211.16;10385619;28;20037;-64
2022/11/07 08:21:34;;;;;;;1.67;0.60;;;;;;;14.69;66.40;100209.09;10385037;28;20053;-64
2022/11/07 08:26:36;;;;;;;4.55;1.00;;;;;;;14.71;66.29;100204.34;10381599;28;20042;-64
2022/11/07 08:31:38;;;;;;;6.15;1.02;;;;;;;14.80;66.12;100200.38;10384211;28;20204;-64
2022/11/07 08:36:39;;;;;;;4.20;0.70;;;;;;;14.83;65.94;100208.09;10384994;28;20041;-65
2022/11/07 08:41:41;;;;;;;2.30;0.50;;;;;;;14.91;65.90;100204.34;10378517;28;20049;-64
2022/11/07 08:46:42;;;;;;;4.85;0.60;;;;;;;14.98;65.47;100210.56;10366520;28;20488;-65
2022/11/07 08:51:44;;;;;;;5.28;0.60;;;;;;;14.99;65.25;100206.00;10389136;28;20139;-65
2022/11/07 08:56:45;;;;;;;5.88;0.75;;;;;;;15.06;65.13;100206.81;10386161;28;20061;-65
2022/11/07 09:01:46;;;;;;;3.65;1.10;;;;;;;15.20;64.71;100199.53;10377704;28;20403;-65
2022/11/07 09:07:08;;;;;;;5.15;0.60;;;;;;;15.29;64.23;100219.94;10377054;28;20058;-65
2022/11/07 09:12:09;;;;;;;2.70;0.50;;;;;;;15.34;64.17;100220.13;10382415;28;20123;-65
2022/11/07 09:17:11;;;;;;;2.92;0.55;;;;;;;15.42;63.86;100213.66;10392102;28;20602;-65
2022/11/07 09:22:13;;;;;;;3.78;1.13;;;;;;;15.35;64.09;100204.72;10382395;28;20156;-64
2022/11/07 09:27:14;;;;;;;5.53;0.73;;;;;;;15.33;63.86;100209.53;10389932;28;20132;-64
2022/11/07 09:32:15;;;;;;;6.75;0.50;;;;;;;15.35;63.69;100207.44;10386369;28;20049;-65
2022/11/07 09:37:38;;;;;;;5.07;0.73;;;;;;;15.46;63.37;100204.06;10379855;28;20046;-64
2022/11/07 09:42:46;;;;;;;6.03;0.55;;;;;;;15.55;63.25;100215.53;10365654;28;20576;-64
2022/11/07 09:47:58;;;;;;;5.72;1.95;;;;;;;15.51;62.88;100217.00;10382591;28;20042;-63
2022/11/07 09:53:21;;;;;;;3.42;0.38;;;;;;;15.57;62.68;100208.00;10379638;28;20056;-64
2022/11/07 09:58:33;;;;;;;4.78;0.80;;;;;;;15.64;62.92;100214.25;10383597;28;20140;-65
2022/11/07 10:03:37;;;;;;;9.18;0.70;;;;;;;15.73;62.39;100214.88;10379825;28;20046;-63
2022/11/07 10:08:44;;;;;;;7.70;0.50;;;;;;;15.74;62.68;100224.66;10379476;28;20045;-65
2022/11/07 10:13:51;;;;;;;;;;;;;;;15.79;62.65;100220.25;10383470;28;20081;-65
2022/11/07 10:19:12;;;;;;;5.80;0.57;;;;;;;15.82;62.46;100227.16;10390458;28;19928;-64
2022/11/07 10:24:30;;;;;;;5.72;0.80;;;;;;;15.97;62.17;100218.75;10395157;28;20103;-64
2022/11/07 10:29:43;;;;;;;4.47;0.50;;;;;;;16.06;61.81;100226.44;10388108;28;20042;-64
2022/11/07 10:34:52;;;;;;;4.75;0.80;;;;;;;16.04;61.81;100233.94;10392763;28;20042;-63
2022/11/07 10:39:55;;;;;;;6.10;0.50;;;;;;;16.30;61.34;100244.91;10388813;28;20052;-63
2022/11/07 10:44:58;;;;;;;5.85;0.50;;;;;;;16.40;61.32;100239.81;10393982;28;20053;-63
2022/11/07 10:50:03;;;;;;;5.43;0.43;;;;;;;16.51;61.07;100238.28;10386390;28;20161;-63
2022/11/07 10:55:07;;;;;;;3.72;0.40;;;;;;;16.50;61.22;100242.06;10387683;28;20136;-63
2022/11/07 11:00:24;;;;;;;6.72;0.80;;;;;;;16.56;60.83;100238.47;10392579;28;20156;-65
2022/11/07 11:05:32;;;;;;;7.35;0.73;;;;;;;16.56;60.94;100235.78;10388454;28;20100;-65
2022/11/07 11:10:37;;;;;;;4.85;0.63;;;;;;;16.50;60.74;100231.22;10389779;28;20599;-65
2022/11/07 11:15:44;;;;;;;5.88;0.50;;;;;;;16.31;61.53;100241.97;10386553;28;20751;-63
2022/11/07 11:21:00;;;;;;;5.47;0.57;;;;;;;16.07;61.89;100238.09;10390362;28;20176;-61
2022/11/07 11:26:07;;;;;;;8.13;1.15;;;;;;;16.10;62.13;100221.41;10383718;28;20081;-64
2022/11/07 11:31:28;;;;;;;7.18;1.45;;;;;;;15.91;62.88;100225.84;10387873;28;20147;-65
2022/11/07 11:36:38;;;;;;;8.52;0.95;;;;;;;15.83;63.16;100221.50;10391055;28;20064;-64
2022/11/07 11:41:50;;;;;;;3.25;0.50;;;;;;;15.81;63.34;100215.47;10384575;28;20050;-64
2022/11/07 11:47:23;;;;;;;7.20;0.90;;;;;;;15.87;63.17;100213.78;10385768;28;20049;-64
2022/11/07 11:52:33;;;;;;;5.50;0.90;;;;;;;16.15;62.50;100213.47;10393688;28;20056;-64
2022/11/07 11:57:49;;;;;;;5.63;0.60;;;;;;;16.31;61.93;100212.13;10390718;28;20145;-63
2022/11/07 12:03:11;;;;;;;9.68;0.85;;;;;;;16.42;61.86;100205.16;10392078;28;20464;-64
2022/11/07 12:08:43;;;;;;;10.13;1.30;;;;;;;16.65;61.13;100201.91;10391349;28;20071;-63
2022/11/07 12:13:56;;;;;;;5.05;1.80;;;;;;;16.84;60.48;100198.25;10391271;28;20526;-65
2022/11/07 12:19:28;;;;;;;3.53;0.45;;;;;;;16.84;60.42;100202.81;10368680;28;20038;-65
2022/11/07 12:24:44;;;;;;;5.07;0.60;;;;;;;16.82;60.22;100180.50;10385374;28;20061;-64
2022/11/07 12:30:03;;;;;;;7.33;0.43;;;;;;;16.92;59.92;100180.81;10383949;28;20057;-64
2022/11/07 12:35:29;;;;;;;5.47;0.70;;;;;;;16.96;59.59;100187.50;10376756;28;20441;-64
2022/11/07 12:40:53;;;;;;;5.80;0.50;;;;;;;17.03;59.44;100184.72;10389982;28;20091;-64
2022/11/07 12:46:15;;;;;;;3.85;0.60;;;;;;;17.12;59.23;100188.81;10388946;28;20504;-64
2022/11/07 12:51:30;;;;;;;7.78;1.25;;;;;;;17.16;58.86;100187.31;10374113;28;20056;-64
2022/11/07 12:56:34;;;;;;;7.13;1.00;;;;;;;17.15;58.50;100192.97;10389063;28;20041;-63
2022/11/07 13:01:43;;;;;;;8.43;0.55;;;;;;;17.25;58.10;100185.13;10376859;28;20497;-64
2022/11/07 13:06:58;;;;;;;5.95;0.60;;;;;;;17.13;58.38;100179.59;10388983;28;20107;-65
2022/11/07 13:12:24;;;;;;;5.20;0.50;;;;;;;17.11;58.39;100178.16;10384504;28;20923;-65
2022/11/07 13:17:40;;;;;;;4.10;0.50;;;;;;;17.09;57.92;100172.13;10386599;28;20071;-64
2022/11/07 13:22:42;;;;;;;10.13;0.70;;;;;;;17.10;58.00;100177.34;10381892;28;20056;-65
2022/11/07 13:27:52;;;;;;;7.00;0.93;;;;;;;17.07;57.83;100168.81;10382382;28;20052;-65
2022/11/07 13:32:53;;;;;;;6.75;0.52;;;;;;;17.17;57.75;100172.66;10389896;28;20152;-65
2022/11/07 13:38:14;;;;;;;10.52;0.52;;;;;;;17.13;57.83;100157.03;10380561;28;20498;-66
2022/11/07 13:43:43;;;;;;;9.25;1.05;;;;;;;17.11;57.81;100178.16;10391715;28;20128;-65
2022/11/07 13:48:52;;;;;;;6.25;0.70;;;;;;;17.12;57.73;100175.22;10384225;28;20207;-65
2022/11/07 13:54:26;;;;;;;5.88;0.60;;;;;;;17.10;57.82;100166.47;10385289;28;20045;-65
2022/11/07 13:59:41;;;;;;;6.47;0.60;;;;;;;17.15;58.06;100172.06;10391637;28;20051;-65
2022/11/07 14:04:51;;;;;;;5.78;0.70;;;;;;;17.09;58.07;100175.66;10393665;28;20139;-65
2022/11/07 14:10:21;;;;;;;11.18;2.15;;;;;;;17.01;58.65;100181.38;10391926;28;20666;-65
2022/11/07 14:15:23;;;;;;;7.20;0.68;;;;;;;16.96;58.82;100198.34;10393805;28;20047;-65
2022/11/07 14:20:24;;;;;;;5.32;0.65;;;;;;;16.92;58.97;100191.69;10392514;28;20099;-64
2022/11/07 14:25:30;;;;;;;4.63;0.35;;;;;;;16.90;59.30;100195.69;10390690;28;20127;-66
2022/11/07 14:30:31;;;;;;;4.18;0.50;;;;;;;16.77;59.29;100194.69;10390587;28;20066;-65
2022/11/07 14:35:34;;;;;;;9.45;0.60;;;;;;;16.70;59.42;100195.81;10392594;28;20539;-65
2022/11/07 14:40:36;;;;;;;6.88;1.35;;;;;;;16.71;59.79;100209.16;10395480;28;20066;-67
2022/11/07 14:45:40;;;;;;;9.43;0.50;;;;;;;16.74;59.30;100203.28;10385466;28;20100;-66
2022/11/07 14:51:02;;;;;;;6.88;0.50;;;;;;;16.75;59.89;100202.25;10388983;28;20557;-66
2022/11/07 14:56:11;;;;;;;7.20;1.60;;;;;;;16.63;60.12;100199.41;10392191;28;20137;-66
2022/11/07 15:01:24;;;;;;;4.95;0.60;;;;;;;16.65;59.91;100205.44;10391229;28;20042;-66
2022/11/07 15:06:39;;;;;;;4.20;0.75;;;;;;;16.73;59.82;100211.66;10393947;28;20045;-64
2022/11/07 15:11:57;;;;;;;4.28;1.60;;;;;;;16.62;60.03;100215.91;10393464;28;20725;-65
2022/11/07 15:17:00;;;;;;;;;;;;;;;16.50;60.23;100220.38;10395069;28;20046;-64
2022/11/07 15:22:03;;;;;;;6.85;1.75;;;;;;;16.54;60.17;100210.75;10383192;28;19931;-64
2022/11/07 15:27:19;;;;;;;12.07;1.10;;;;;;;16.58;60.18;100211.97;10384106;28;20056;-65
2022/11/07 15:32:23;;;;;;;4.10;0.57;;;;;;;16.61;60.15;100211.53;10385138;28;20052;-66
2022/11/07 15:37:25;;;;;;;7.20;2.45;;;;;;;16.59;60.06;100216.34;10390057;28;20048;-65
2022/11/07 15:42:27;;;;;;;7.32;1.20;;;;;;;16.59;60.24;100219.88;10392318;28;20065;-66
2022/11/07 15:47:28;;;;;;;6.68;0.82;;;;;;;16.56;60.06;100222.19;10390657;28;20077;-65
2022/11/07 15:52:30;;;;;;;5.63;0.80;;;;;;;16.51;60.27;100222.88;10394501;28;20051;-66
2022/11/07 15:57:32;;;;;;;7.40;1.40;;;;;;;16.43;60.48;100220.41;10395405;28;20045;-66
2022/11/07 16:02:33;;;;;;;8.50;1.40;;;;;;;16.41;60.58;100227.91;10388680;28;20194;-66
2022/11/07 16:07:35;;;;;;;15.27;3.20;;;;;;;16.32;60.89;100221.91;10386070;28;20041;-65
2022/11/07 16:12:36;;;;;;;6.95;1.45;;;;;;;16.32;60.82;100219.22;10387877;28;20128;-66
2022/11/07 16:17:38;;;;;;;8.80;0.80;;;;;;;16.32;60.83;100211.06;10393696;28;20469;-67
2022/11/07 16:22:39;;;;;;;9.18;1.52;;;;;;;16.30;61.07;100212.34;10387709;28;20141;-66
2022/11/07 16:27:48;;;;;;;5.68;0.90;;;;;;;16.25;61.29;100210.25;10385848;28;20080;-67
2022/11/07 16:32:50;;;;;;;5.97;0.77;;;;;;;16.19;61.55;100221.97;10387871;28;20129;-67
2022/11/07 16:37:51;;;;;;;6.05;0.85;;;;;;;16.08;61.92;100228.09;10385634;28;20138;-67
2022/11/07 16:42:52;;;;;;;6.90;0.70;;;;;;;16.06;61.75;100234.56;10391884;28;20136;-67
2022/11/07 16:47:54;;;;;;;3.30;1.13;;;;;;;16.03;61.81;100231.44;10386353;28;20054;-65
2022/11/07 16:52:55;;;;;;;6.95;0.90;;;;;;;15.95;62.31;100223.56;10382481;28;20451;-67
2022/11/07 16:57:56;;;;;;;5.50;0.63;;;;;;;15.92;62.17;100213.16;10385979;28;20132;-68
2022/11/07 17:02:58;;;;;;;8.07;0.82;;;;;;;15.86;62.48;100223.78;10381717;28;20177;-67
2022/11/07 17:08:00;;;;;;;8.73;1.15;;;;;;;15.93;62.53;100223.75;10384526;28;20052;-66
2022/11/07 17:13:02;;;;;;;18.85;1.75;;;;;;;15.95;62.44;100218.13;10383488;28;20736;-66
2022/11/07 17:18:03;;;;;;;5.57;0.52;;;;;;;15.94;62.78;100228.16;10386002;28;20137;-66
2022/11/07 17:23:08;;;;;;;6.75;0.93;;;;;;;15.92;62.94;100232.94;10385169;28;20046;-66
2022/11/07 17:28:10;;;;;;;7.60;0.80;;;;;;;15.96;62.87;100244.22;10383907;28;20041;-66
2022/11/07 17:33:11;;;;;;;5.70;0.80;;;;;;;16.04;62.76;100250.22;10386439;28;20144;-67
2022/11/07 17:38:15;;;;;;;6.75;1.52;;;;;;;16.10;62.57;100253.94;10389335;28;20072;-67
2022/11/07 17:43:17;;;;;;;6.93;1.92;;;;;;;16.11;62.67;100252.06;10379153;28;20488;-68
2022/11/07 17:48:19;;;;;;;4.32;0.80;;;;;;;16.01;62.98;100253.34;10380854;28;20049;-68
2022/11/07 17:53:21;;;;;;;4.15;0.95;;;;;;;16.11;62.78;100262.91;10383590;28;20525;-66
2022/11/07 17:58:22;;;;;;;4.53;0.90;;;;;;;16.15;62.50;100254.16;10379940;28;20126;-66
2022/11/07 18:03:23;;;;;;;7.85;0.90;;;;;;;16.15;62.69;100266.84;10374897;28;20128;-66
2022/11/07 18:08:25;;;;;;;3.33;0.88;;;;;;;16.12;62.86;100256.44;10387401;28;20373;-66
2022/11/07 18:13:49;;;;;;;9.63;1.00;;;;;;;16.05;62.92;100262.75;10382093;28;20424;-66
2022/11/07 18:18:50;;;;;;;11.57;1.20;;;;;;;16.13;62.94;100252.69;10386977;28;20128;-67
2022/11/07 18:23:52;;;;;;;7.57;1.83;;;;;;;16.05;63.09;100253.75;10390912;28;20140;-67
2022/11/07 18:28:54;;;;;;;5.57;1.02;;;;;;;16.06;62.92;100263.56;10384291;28;20140;-66
2022/11/07 18:33:57;;;;;;;5.20;1.00;;;;;;;15.98;63.29;100255.66;10380042;28;20677;-67
2022/11/07 18:39:23;;;;;;;10.55;1.38;;;;;;;15.93;63.42;100255.47;10387417;28;20129;-66
2022/11/07 18:44:25;;;;;;;4.82;1.27;;;;;;;15.96;63.20;100255.88;10395326;28;20128;-67
2022/11/07 18:49:26;;;;;;;7.65;1.08;;;;;;;15.84;63.09;100252.16;10394071;28;20069;-67
2022/11/07 18:54:28;;;;;;;5.78;1.05;;;;;;;15.69;63.90;100251.53;10392887;28;20136;-67
2022/11/07 18:59:30;;;;;;;4.32;0.85;;;;;;;15.60;64.03;100245.50;10389376;28;20124;-66
2022/11/07 19:04:32;;;;;;;7.03;1.02;;;;;;;15.55;63.98;100237.19;10385148;28;20042;-66
2022/11/07 19:09:35;;;;;;;4.50;0.95;;;;;;;15.44;64.17;100246.78;10387784;28;20069;-68
2022/11/07 19:14:37;;;;;;;5.30;1.27;;;;;;;15.37;64.19;100252.22;10387270;28;20464;-67
2022/11/07 19:19:38;;;;;;;6.28;1.35;;;;;;;15.45;64.14;100249.28;10390349;28;20037;-66
2022/11/07 19:24:39;;;;;;;13.73;1.38;;;;;;;15.51;63.88;100252.22;10378944;28;20137;-67
2022/11/07 19:29:41;;;;;;;9.88;2.78;;;;;;;15.49;63.94;100247.00;10387038;28;20513;-67
2022/11/07 19:34:42;;;;;;;12.25;1.00;;;;;;;15.43;64.01;100262.22;10395202;28;20049;-67
2022/11/07 19:39:44;;;;;;;10.13;1.20;;;;;;;15.42;64.04;100259.69;10387973;28;20108;-66
2022/11/07 19:44:45;;;;;;;11.30;2.25;;;;;;;15.43;64.11;100255.97;10396439;28;20144;-67
2022/11/07 19:49:54;;;;;;;8.23;1.10;;;;;;;15.43;64.03;100256.78;10396173;28;20041;-67
2022/11/07 19:54:55;;;;;;;4.43;1.25;;;;;;;15.47;64.03;100259.91;10390547;28;20064;-66
2022/11/07 19:59:57;;;;;;;8.93;1.17;;;;;;;15.39;64.12;100263.69;10391328;28;20136;-67
2022/11/07 20:04:58;;;;;;;3.85;0.88;;;;;;;15.31;64.19;100258.47;10385892;28;20526;-66
2022/11/07 20:10:00;;;;;;;7.90;1.08;;;;;;;15.21;64.55;100258.91;10384437;28;20128;-67
2022/11/07 20:15:02;;;;;;;7.43;1.38;;;;;;;15.11;64.56;100258.47;10384199;28;20485;-67
2022/11/07 20:20:04;;;;;;;7.72;1.08;;;;;;;14.99;64.92;100257.44;10386062;28;20049;-68
2022/11/07 20:25:13;;;;;;;5.50;1.25;;;;;;;14.87;64.95;100252.63;10350193;28;1051326;-68
2022/11/07 20:30:15;;;;;;;10.05;1.75;;;;;;;14.68;65.28;100256.16;10387045;28;20124;-67
2022/11/07 20:35:16;;;;;;;7.32;1.35;;;;;;;14.47;65.81;100265.22;10387387;28;20030;-68
2022/11/07 20:40:17;;;;;;;7.38;1.60;;;;;;;14.34;66.14;100265.19;10389138;28;20053;-66
2022/11/07 20:45:19;;;;;;;7.45;1.67;;;;;;;14.25;66.44;100267.22;10381040;28;20577;-66
2022/11/07 20:50:20;;;;;;;7.72;1.67;;;;;;;14.18;67.02;100250.13;10385760;28;20157;-65
2022/11/07 20:55:22;;;;;;;7.20;1.92;;;;;;;14.15;67.06;100255.94;10375813;28;20084;-66
2022/11/07 21:00:24;;;;;;;35.40;2.25;;;;;;;14.20;67.11;100267.84;10382402;28;20046;-66
2022/11/07 21:05:25;;;;;;;9.45;2.63;;;;;;;14.15;66.95;100258.66;10365880;28;20137;-66
2022/11/07 21:10:27;;;;;;;14.77;2.15;;;;;;;14.11;67.26;100279.84;10382326;28;20080;-66
2022/11/07 21:15:28;;;;;;;6.38;1.85;;;;;;;14.07;67.30;100270.47;10382103;28;20107;-65
2022/11/07 21:20:30;;;;;;;9.00;1.95;;;;;;;14.05;67.25;100275.25;10386076;28;20041;-66
2022/11/07 21:25:41;;;;;;;7.82;3.65;;;;;;;13.97;67.49;100276.25;10384841;28;20054;-65
2022/11/07 21:30:44;;;;;;;14.15;3.45;;;;;;;13.91;67.69;100277.06;10383179;28;20049;-65
2022/11/07 21:35:46;;;;;;;8.77;2.65;;;;;;;13.88;67.47;100266.63;10381585;28;20062;-66
2022/11/07 21:40:47;;;;;;;15.15;3.97;;;;;;;13.82;68.02;100272.84;10380128;28;20069;-67
2022/11/07 21:45:49;;;;;;;11.90;3.80;;;;;;;13.79;67.89;100279.47;10385229;28;20072;-67
2022/11/07 21:50:50;;;;;;;8.32;2.17;;;;;;;13.75;68.02;100275.50;10382463;28;20069;-66
2022/11/07 21:55:51;;;;;;;8.57;2.88;;;;;;;13.69;68.40;100279.00;10382983;28;20057;-67
2022/11/07 22:00:53;;;;;;;8.82;2.20;;;;;;;13.70;68.42;100269.84;10372398;28;20049;-67
2022/11/07 22:05:54;;;;;;;11.18;2.63;;;;;;;13.67;67.93;100264.88;10371600;28;20049;-66
2022/11/07 22:10:59;;;;;;;7.35;2.38;;;;;;;13.59;68.13;100262.31;10379605;28;20136;-66
2022/11/07 22:16:06;;;;;;;10.20;2.47;;;;;;;13.49;67.56;100265.38;10387520;28;20136;-66
2022/11/07 22:21:10;;;;;;;8.40;2.47;;;;;;;13.40;68.13;100255.75;10372335;28;20046;-65
2022/11/07 22:26:17;;;;;;;9.00;2.33;;;;;;;13.29;68.18;100244.47;10391653;28;20433;-65
2022/11/07 22:31:24;;;;;;;7.63;3.88;;;;;;;13.19;68.25;100241.25;10386040;28;20133;-66
2022/11/07 22:36:27;;;;;;;5.70;2.70;;;;;;;13.05;68.47;100247.53;10390039;28;20141;-66
2022/11/07 22:41:29;;;;;;;11.02;2.47;;;;;;;12.94;68.09;100231.91;10390247;28;20069;-64
2022/11/07 22:46:30;;;;;;;12.68;2.92;;;;;;;12.81;68.31;100232.59;10382000;28;20069;-63
2022/11/07 22:51:33;;;;;;;10.32;2.95;;;;;;;12.72;68.52;100220.25;10386581;28;20133;-63
2022/11/07 22:56:35;;;;;;;9.48;2.20;;;;;;;12.66;68.65;100224.59;10391480;28;20133;-64
2022/11/07 23:01:39;;;;;;;11.07;2.83;;;;;;;12.57;68.79;100229.25;10384732;28;20062;-63
2022/11/07 23:06:41;;;;;;;7.40;2.97;;;;;;;12.50;69.04;100228.38;10400217;28;20125;-64
2022/11/07 23:11:43;;;;;;;7.20;3.28;;;;;;;12.40;69.15;100219.75;10390461;28;20115;-64
2022/11/07 23:16:54;;;;;;;7.10;2.83;;;;;;;12.28;69.16;100204.09;10387022;28;20381;-64
2022/11/07 23:21:55;;;;;;;9.27;3.30;;;;;;;12.19;69.11;100210.63;10387355;28;20046;-64
2022/11/07 23:26:57;;;;;;;4.68;3.17;;;;;;;12.09;69.03;100212.78;10391065;28;20148;-64